Time;durP1;ratioP1;P1;durP2;ratioP2;P2;SDS_P1;SDS_P2;PMS_P1;PMS_P2;Temp;Humidity;BMP_temperature;BMP_pressure;BME280_temperature;BME280_humidity;BME280_pressure;Samples;Min_cycle;Max_cycle;Signal;HPM_P1;HPM_P2
2022/07/09 00:01:24;;;;;;;10.27;3.53;;;;;;;10.79;100.00;96616.91;5057110;28;20498;-77
2022/07/09 00:03:49;;;;;;;9.82;3.55;;;;;;;10.81;100.00;96614.81;5039114;28;20041;-77
2022/07/09 00:06:14;;;;;;;12.68;3.60;;;;;;;10.81;100.00;96614.03;5039818;28;20064;-78
2022/07/09 00:08:40;;;;;;;8.38;3.15;;;;;;;10.74;100.00;96608.94;5037987;28;20041;-77
2022/07/09 00:11:05;;;;;;;7.70;3.13;;;;;;;10.73;100.00;96607.31;5056112;28;20494;-77
2022/07/09 00:13:31;;;;;;;8.88;3.30;;;;;;;10.69;100.00;96612.31;5056867;28;20041;-78
2022/07/09 00:15:56;;;;;;;8.50;3.42;;;;;;;10.69;100.00;96611.50;5056927;28;20485;-77
2022/07/09 00:18:22;;;;;;;9.63;3.35;;;;;;;10.63;100.00;96601.94;5056880;28;20047;-77
2022/07/09 00:20:47;;;;;;;8.70;3.35;;;;;;;10.65;100.00;96599.88;5037689;28;20049;-77
2022/07/09 00:23:13;;;;;;;7.43;3.30;;;;;;;10.60;100.00;96591.88;5057197;28;20065;-76
2022/07/09 00:25:38;;;;;;;8.02;3.72;;;;;;;10.58;100.00;96595.56;5037603;28;20094;-77
2022/07/09 00:28:04;;;;;;;6.50;3.50;;;;;;;10.46;100.00;96597.50;5048141;28;20083;-77
2022/07/09 00:30:29;;;;;;;6.50;3.72;;;;;;;10.40;100.00;96593.19;5049627;28;20041;-76
2022/07/09 00:32:55;;;;;;;7.68;4.03;;;;;;;10.37;100.00;96588.41;5055582;28;20088;-77
2022/07/09 00:35:20;;;;;;;8.02;4.00;;;;;;;10.33;100.00;96582.00;5037383;28;20091;-76
2022/07/09 00:37:46;;;;;;;14.23;3.88;;;;;;;10.37;100.00;96578.69;5033203;28;20126;-76
2022/07/09 00:40:11;;;;;;;9.55;3.75;;;;;;;10.28;100.00;96579.31;5037322;28;20066;-76
2022/07/09 00:42:37;;;;;;;8.07;3.75;;;;;;;10.36;100.00;96571.06;5059181;28;20592;-76
2022/07/09 00:45:03;;;;;;;7.28;3.92;;;;;;;10.26;100.00;96576.09;5038643;28;20052;-77
2022/07/09 00:47:28;;;;;;;10.18;3.72;;;;;;;10.30;100.00;96577.22;5055346;28;20107;-77
2022/07/09 00:49:54;;;;;;;6.03;3.50;;;;;;;10.23;100.00;96582.66;5055123;28;20055;-77
2022/07/09 00:52:20;;;;;;;10.52;4.20;;;;;;;10.18;100.00;96580.75;5036784;28;20040;-76
2022/07/09 00:54:46;;;;;;;6.03;3.72;;;;;;;10.15;100.00;96575.16;5023232;28;20044;-76
2022/07/09 00:57:12;;;;;;;11.77;4.63;;;;;;;10.08;100.00;96577.94;5053593;28;20048;-77
2022/07/09 00:59:39;;;;;;;10.70;4.00;;;;;;;10.07;100.00;96579.00;5054426;28;20056;-76
2022/07/09 01:02:09;;;;;;;13.00;4.25;;;;;;;10.10;100.00;96581.16;5051765;28;20037;-76
2022/07/09 01:04:35;;;;;;;7.55;3.85;;;;;;;10.01;100.00;96579.94;5053050;28;20041;-77
2022/07/09 01:07:01;;;;;;;11.10;4.60;;;;;;;9.91;100.00;96569.28;5050260;28;20044;-77
2022/07/09 01:09:28;;;;;;;8.95;4.30;;;;;;;9.91;100.00;96569.28;5054458;28;20101;-76
2022/07/09 01:11:53;;;;;;;8.93;4.55;;;;;;;9.99;100.00;96577.56;5043362;28;20068;-77
2022/07/09 01:14:19;;;;;;;11.63;4.38;;;;;;;10.03;100.00;96556.84;5054684;28;20039;-78
2022/07/09 01:16:45;;;;;;;11.52;4.22;;;;;;;10.07;100.00;96563.22;5036711;28;20041;-77
2022/07/09 01:19:11;;;;;;;15.18;4.25;;;;;;;10.01;100.00;96554.47;5045038;28;20041;-77
2022/07/09 01:21:37;;;;;;;9.40;4.28;;;;;;;9.95;100.00;96560.66;5052596;28;20693;-77
2022/07/09 01:24:03;;;;;;;13.75;3.95;;;;;;;9.84;100.00;96549.19;5053320;28;20044;-77
2022/07/09 01:26:28;;;;;;;10.27;4.45;;;;;;;9.82;100.00;96556.50;5036204;28;20257;-76
2022/07/09 01:28:54;;;;;;;11.48;4.00;;;;;;;9.81;100.00;96560.19;5035368;28;20033;-78
2022/07/09 01:31:19;;;;;;;9.80;4.22;;;;;;;9.77;100.00;96558.25;5036332;28;20037;-76
2022/07/09 01:33:45;;;;;;;10.02;4.13;;;;;;;9.76;100.00;96552.22;5055415;28;20483;-76
2022/07/09 01:36:11;;;;;;;10.02;4.88;;;;;;;9.81;100.00;96554.94;5033647;28;20068;-76
2022/07/09 01:38:37;;;;;;;8.77;4.25;;;;;;;9.85;100.00;96556.03;5051375;28;20048;-77
2022/07/09 01:41:03;;;;;;;11.13;3.75;;;;;;;9.80;100.00;96555.19;5034240;28;20109;-77
2022/07/09 01:43:30;;;;;;;13.23;4.28;;;;;;;9.77;100.00;96559.06;5054069;28;20049;-76
2022/07/09 01:45:57;;;;;;;8.20;4.25;;;;;;;9.75;100.00;96550.63;5055618;28;20036;-77
2022/07/09 01:48:22;;;;;;;7.85;3.72;;;;;;;9.73;100.00;96547.44;5054256;28;20076;-78
2022/07/09 01:50:48;;;;;;;7.85;3.95;;;;;;;9.66;100.00;96541.53;5037038;28;20471;-76
2022/07/09 01:53:13;;;;;;;6.50;4.00;;;;;;;9.70;100.00;96537.41;5053992;28;20029;-76
2022/07/09 01:55:39;;;;;;;9.52;3.65;;;;;;;9.81;100.00;96539.16;5054698;28;20049;-77
2022/07/09 01:58:05;;;;;;;10.75;3.97;;;;;;;9.88;100.00;96531.09;5034559;28;20036;-77
2022/07/09 02:00:30;;;;;;;5.95;3.50;;;;;;;9.91;100.00;96535.88;5030907;28;20044;-76
2022/07/09 02:02:56;;;;;;;14.05;4.15;;;;;;;10.00;100.00;96525.78;5054567;28;20053;-77
2022/07/09 02:05:22;;;;;;;11.52;3.83;;;;;;;10.06;100.00;96528.22;5054334;28;20649;-76
2022/07/09 02:07:48;;;;;;;8.43;3.72;;;;;;;10.13;100.00;96520.19;5034912;28;20037;-76
2022/07/09 02:10:14;;;;;;;8.90;3.97;;;;;;;10.21;100.00;96526.84;5031937;28;20057;-77
2022/07/09 02:12:40;;;;;;;11.32;4.07;;;;;;;10.31;100.00;96521.72;5035501;28;20040;-76
2022/07/09 02:15:08;;;;;;;11.82;3.47;;;;;;;10.41;100.00;96515.84;5048787;28;20037;-77
2022/07/09 02:17:33;;;;;;;13.25;4.20;;;;;;;10.46;100.00;96515.91;5051537;28;20041;-77
2022/07/09 02:19:59;;;;;;;10.10;4.13;;;;;;;10.55;100.00;96524.97;5034618;28;20041;-76
2022/07/09 02:22:25;;;;;;;6.43;3.65;;;;;;;10.58;100.00;96510.53;5035230;28;20072;-77
2022/07/09 02:24:50;;;;;;;9.68;3.80;;;;;;;10.61;100.00;96511.91;5034507;28;20044;-77
2022/07/09 02:27:16;;;;;;;8.32;3.15;;;;;;;10.75;100.00;96513.13;5063462;28;20414;-76
2022/07/09 02:29:41;;;;;;;8.07;3.13;;;;;;;10.82;100.00;96515.53;5051727;28;20514;-77
2022/07/09 02:32:10;;;;;;;6.47;3.22;;;;;;;10.79;100.00;96516.84;5048177;28;20045;-77
2022/07/09 02:34:37;;;;;;;5.65;2.90;;;;;;;10.98;100.00;96508.63;5034941;28;20044;-76
2022/07/09 02:37:03;;;;;;;8.55;3.17;;;;;;;10.95;100.00;96503.84;5046908;28;20045;-75
2022/07/09 02:39:29;;;;;;;6.55;3.00;;;;;;;11.04;100.00;96505.00;5031469;28;20117;-76
2022/07/09 02:41:54;;;;;;;5.50;2.80;;;;;;;11.08;100.00;96492.94;5044110;28;20041;-76
2022/07/09 02:44:20;;;;;;;7.20;2.75;;;;;;;11.10;100.00;96501.38;5034068;28;20037;-76
2022/07/09 02:46:45;;;;;;;8.32;2.90;;;;;;;11.16;100.00;96495.13;5051532;28;20453;-77
2022/07/09 02:49:11;;;;;;;6.53;2.67;;;;;;;11.23;100.00;96503.63;5043078;28;20052;-75
2022/07/09 02:51:37;;;;;;;7.10;2.70;;;;;;;11.25;100.00;96498.91;5051035;28;20048;-76
2022/07/09 02:54:03;;;;;;;6.25;2.50;;;;;;;11.32;100.00;96498.72;5034282;28;20037;-75
2022/07/09 02:56:28;;;;;;;8.45;2.60;;;;;;;11.42;100.00;96492.72;5052005;28;20045;-77
2022/07/09 02:58:54;;;;;;;5.53;2.60;;;;;;;11.46;100.00;96499.06;5045227;28;20060;-77
2022/07/09 03:01:19;;;;;;;6.65;2.60;;;;;;;11.47;100.00;96484.88;5051965;28;20086;-75
2022/07/09 03:03:45;;;;;;;7.30;2.70;;;;;;;11.56;100.00;96488.63;5033869;28;20045;-76
2022/07/09 03:06:10;;;;;;;11.27;3.03;;;;;;;11.66;100.00;96487.91;5043882;28;20034;-75
2022/07/09 03:08:36;;;;;;;6.50;2.50;;;;;;;11.68;100.00;96487.66;5033184;28;20118;-76
2022/07/09 03:11:02;;;;;;;8.02;2.78;;;;;;;11.68;100.00;96482.38;5045306;28;20140;-76
2022/07/09 03:13:27;;;;;;;6.82;2.78;;;;;;;11.68;100.00;96485.03;5050778;28;20045;-77
2022/07/09 03:15:53;;;;;;;5.63;2.88;;;;;;;11.73;100.00;96488.50;5051687;28;20561;-77
2022/07/09 03:18:18;;;;;;;6.63;2.40;;;;;;;11.75;100.00;96490.88;5050279;28;20052;-78
2022/07/09 03:20:44;;;;;;;5.18;2.55;;;;;;;11.73;100.00;96493.78;5033170;28;20041;-76
2022/07/09 03:23:12;;;;;;;7.60;2.67;;;;;;;11.83;100.00;96495.69;5049898;28;20056;-76
2022/07/09 03:25:38;;;;;;;4.07;2.30;;;;;;;11.79;100.00;96497.25;5048502;28;20045;-76
2022/07/09 03:28:04;;;;;;;4.72;2.60;;;;;;;11.81;100.00;96503.06;5038028;28;20103;-77
2022/07/09 03:30:30;;;;;;;7.15;2.92;;;;;;;11.80;100.00;96496.19;5035276;28;20048;-77
2022/07/09 03:32:56;;;;;;;8.60;2.78;;;;;;;12.00;100.00;96502.72;5051971;28;20047;-76
2022/07/09 03:35:21;;;;;;;5.53;2.95;;;;;;;11.94;100.00;96496.59;5046117;28;20437;-76
2022/07/09 03:37:47;;;;;;;7.43;2.95;;;;;;;11.94;100.00;96510.56;5050283;28;20099;-76
2022/07/09 03:40:12;;;;;;;5.40;2.70;;;;;;;12.02;100.00;96501.38;5047637;28;20041;-76
2022/07/09 03:42:38;;;;;;;5.55;2.60;;;;;;;12.05;100.00;96505.38;5050921;28;20654;-76
2022/07/09 03:45:03;;;;;;;5.18;2.63;;;;;;;12.02;100.00;96495.31;5050878;28;20044;-76
2022/07/09 03:47:29;;;;;;;5.07;2.92;;;;;;;12.02;100.00;96508.50;5051137;28;20049;-76
2022/07/09 03:49:54;;;;;;;8.48;3.30;;;;;;;11.96;100.00;96503.19;5047561;28;20037;-75
2022/07/09 03:52:20;;;;;;;3.50;2.58;;;;;;;12.03;100.00;96512.75;5049500;28;20538;-76
2022/07/09 03:54:45;;;;;;;5.45;3.00;;;;;;;12.05;100.00;96510.63;5049995;28;20041;-76
2022/07/09 03:57:11;;;;;;;7.60;2.72;;;;;;;11.99;100.00;96511.66;5046034;28;20045;-76
2022/07/09 03:59:37;;;;;;;4.43;2.75;;;;;;;12.02;100.00;96511.16;5021660;28;20048;-76
2022/07/09 04:02:04;;;;;;;12.20;3.45;;;;;;;12.05;100.00;96515.91;5032374;28;20044;-76
2022/07/09 04:04:29;;;;;;;6.10;3.00;;;;;;;12.02;100.00;96521.72;5050981;28;20177;-77
2022/07/09 04:06:55;;;;;;;3.88;2.70;;;;;;;11.96;100.00;96516.38;5043244;28;20038;-76
2022/07/09 04:09:21;;;;;;;4.28;2.80;;;;;;;12.01;100.00;96520.09;5050154;28;20090;-76
2022/07/09 04:11:46;;;;;;;5.50;2.83;;;;;;;12.01;100.00;96520.09;5030474;28;20040;-76
2022/07/09 04:14:14;;;;;;;4.80;2.63;;;;;;;12.07;100.00;96524.41;5050452;28;20041;-76
2022/07/09 04:16:40;;;;;;;11.68;3.28;;;;;;;12.13;100.00;96528.66;5049367;28;20041;-76
2022/07/09 04:19:06;;;;;;;7.28;2.63;;;;;;;12.16;100.00;96528.13;5036526;28;20126;-74
2022/07/09 04:21:32;;;;;;;5.15;2.80;;;;;;;12.13;100.00;96526.00;5031581;28;20049;-76
2022/07/09 04:23:57;;;;;;;6.20;3.10;;;;;;;12.07;100.00;96524.41;5048893;28;20094;-76
2022/07/09 04:26:23;;;;;;;5.55;2.80;;;;;;;12.11;100.00;96514.91;5050026;28;20048;-76
2022/07/09 04:28:49;;;;;;;8.27;3.08;;;;;;;12.12;100.00;96529.69;5046813;28;20044;-76
2022/07/09 04:31:15;;;;;;;4.85;2.90;;;;;;;12.17;100.00;96529.72;5035664;28;20379;-77
2022/07/09 04:33:43;;;;;;;6.40;3.10;;;;;;;12.15;100.00;96523.13;5049923;28;20045;-76
2022/07/09 04:36:08;;;;;;;11.55;3.25;;;;;;;12.17;100.00;96523.63;5047430;28;20636;-76
2022/07/09 04:38:34;;;;;;;6.68;2.88;;;;;;;12.13;100.00;96533.94;5053521;28;20067;-75
2022/07/09 04:40:59;;;;;;;6.18;2.92;;;;;;;12.08;100.00;96523.31;5052110;28;20079;-77
2022/07/09 04:43:24;;;;;;;5.32;2.83;;;;;;;12.16;100.00;96527.34;5035561;28;20041;-76
2022/07/09 04:45:50;;;;;;;6.55;2.72;;;;;;;12.16;100.00;96533.41;5059677;28;20055;-76
2022/07/09 04:48:16;;;;;;;7.05;2.78;;;;;;;12.09;100.00;96528.34;5035885;28;20056;-77
2022/07/09 04:50:41;;;;;;;4.80;2.83;;;;;;;12.09;100.00;96522.28;5045745;28;20048;-76
2022/07/09 04:53:06;;;;;;;4.85;2.78;;;;;;;12.12;100.00;96529.69;5034758;28;20418;-76
2022/07/09 04:55:33;;;;;;;7.32;3.05;;;;;;;12.07;100.00;96529.66;5035029;28;20131;-77
2022/07/09 04:57:58;;;;;;;5.45;3.22;;;;;;;12.09;100.00;96523.06;5050576;28;21777;-76
2022/07/09 05:00:24;;;;;;;5.90;3.00;;;;;;;12.16;100.00;96536.06;5034465;28;20033;-76
2022/07/09 05:02:50;;;;;;;7.13;2.90;;;;;;;12.17;100.00;96524.44;5035935;28;20037;-76
2022/07/09 05:05:15;;;;;;;6.40;3.00;;;;;;;12.13;100.00;96523.38;5035091;28;20240;-76
2022/07/09 05:07:43;;;;;;;7.07;2.70;;;;;;;12.21;100.00;96525.53;5052334;28;20499;-75
2022/07/09 05:10:09;;;;;;;6.28;3.25;;;;;;;12.25;100.00;96525.81;5048315;28;20030;-75
2022/07/09 05:12:34;;;;;;;6.53;3.10;;;;;;;12.30;100.00;96523.22;5053084;28;20041;-77
2022/07/09 05:15:01;;;;;;;6.10;3.20;;;;;;;12.36;100.00;96531.97;5052523;28;20098;-76
2022/07/09 05:17:27;;;;;;;5.72;2.95;;;;;;;12.37;100.00;96530.88;5052258;28;20078;-75
2022/07/09 05:19:52;;;;;;;6.13;3.10;;;;;;;12.47;100.00;96530.97;5033279;28;20422;-75
2022/07/09 05:22:18;;;;;;;5.43;2.88;;;;;;;12.52;100.00;96530.97;5051544;28;20099;-75
2022/07/09 05:24:43;;;;;;;5.57;2.70;;;;;;;12.55;100.00;96530.47;5051761;28;20045;-76
2022/07/09 05:27:09;;;;;;;8.25;3.05;;;;;;;12.70;100.00;96536.88;5052478;28;20086;-76
2022/07/09 05:29:38;;;;;;;15.85;3.20;;;;;;;12.76;100.00;96535.84;5033130;28;20554;-76
2022/07/09 05:32:04;;;;;;;7.70;3.55;;;;;;;12.84;100.00;96535.34;5052605;28;20424;-77
2022/07/09 05:34:29;;;;;;;6.18;2.70;;;;;;;12.94;100.00;96524.84;5053458;28;20103;-77
2022/07/09 05:36:55;;;;;;;7.80;2.80;;;;;;;12.98;100.00;96538.31;5035964;28;20470;-77
2022/07/09 05:39:21;;;;;;;6.97;3.00;;;;;;;13.07;100.00;96533.31;5050823;28;20044;-77
2022/07/09 05:41:48;;;;;;;5.55;3.05;;;;;;;13.13;100.00;96540.19;5052631;28;20048;-78
2022/07/09 05:44:14;;;;;;;8.70;3.25;;;;;;;13.19;100.00;96536.53;5054897;28;20040;-78
2022/07/09 05:46:40;;;;;;;5.75;2.90;;;;;;;13.30;100.00;96530.22;5053963;28;20064;-77
2022/07/09 05:49:06;;;;;;;7.22;2.92;;;;;;;13.50;100.00;96533.97;5050636;28;20045;-78
2022/07/09 05:51:32;;;;;;;6.63;3.20;;;;;;;13.46;100.00;96535.53;5045402;28;20052;-76
2022/07/09 05:53:57;;;;;;;10.63;3.03;;;;;;;13.63;100.00;96528.19;5053048;28;20528;-78
2022/07/09 05:56:23;;;;;;;6.95;3.15;;;;;;;13.72;100.00;96530.28;5055879;28;20061;-78
2022/07/09 05:58:49;;;;;;;6.10;3.15;;;;;;;13.85;100.00;96535.06;5043795;28;20045;-76
2022/07/09 06:01:14;;;;;;;5.03;3.05;;;;;;;13.86;100.00;96523.41;5050695;28;20037;-77
2022/07/09 06:03:40;;;;;;;5.70;3.10;;;;;;;13.95;100.00;96528.97;5052120;28;20114;-77
2022/07/09 06:06:06;;;;;;;9.20;3.00;;;;;;;14.11;100.00;96529.75;5050403;28;20643;-84
2022/07/09 06:08:33;;;;;;;6.80;3.00;;;;;;;14.12;100.00;96528.69;5027466;28;20318;-76
2022/07/09 06:10:59;;;;;;;7.07;3.20;;;;;;;14.27;100.00;96526.03;5043528;28;20455;-77
2022/07/09 06:13:25;;;;;;;5.70;2.80;;;;;;;14.40;100.00;96521.25;5051934;28;20674;-78
2022/07/09 06:15:51;;;;;;;12.48;2.78;;;;;;;14.41;98.03;96520.16;5051573;28;20063;-81
2022/07/09 06:18:17;;;;;;;7.03;3.10;;;;;;;14.62;98.99;96527.00;5031695;28;20036;-77
2022/07/09 06:20:43;;;;;;;5.25;2.78;;;;;;;14.70;98.20;96533.63;5047341;28;20044;-80
2022/07/09 06:23:08;;;;;;;6.53;2.70;;;;;;;14.77;95.62;96538.63;5051659;28;20041;-78
2022/07/09 06:25:34;;;;;;;5.43;3.40;;;;;;;14.92;96.76;96532.47;5045534;28;20041;-78
2022/07/09 06:27:59;;;;;;;8.85;3.00;;;;;;;15.02;97.15;96535.88;5033800;28;20076;-79
2022/07/09 06:30:25;;;;;;;5.53;3.05;;;;;;;15.13;93.75;96538.47;5042907;28;20059;-78
2022/07/09 06:32:51;;;;;;;12.85;3.83;;;;;;;15.14;93.78;96537.41;5026818;28;20037;-78
2022/07/09 06:35:17;;;;;;;4.85;2.85;;;;;;;15.18;93.62;96528.63;5032957;28;20036;-79
2022/07/09 06:37:43;;;;;;;6.57;2.97;;;;;;;15.30;94.03;96536.28;5040141;28;20048;-78
2022/07/09 06:40:09;;;;;;;9.38;3.45;;;;;;;15.27;93.33;96530.72;5027929;28;20044;-78
2022/07/09 06:42:34;;;;;;;6.97;2.95;;;;;;;15.44;93.61;96533.78;5047743;28;20049;-79
2022/07/09 06:45:00;;;;;;;8.95;3.20;;;;;;;15.51;92.74;96525.53;5032466;28;20037;-81
2022/07/09 06:47:25;;;;;;;8.38;2.95;;;;;;;15.51;92.90;96521.00;5048858;28;20068;-80
2022/07/09 06:49:51;;;;;;;8.23;3.20;;;;;;;15.82;92.22;96530.66;5053019;28;20075;-78
2022/07/09 06:52:17;;;;;;;6.72;3.10;;;;;;;15.83;92.05;96526.91;5049127;28;20037;-77
2022/07/09 06:54:42;;;;;;;9.63;2.95;;;;;;;16.01;89.12;96523.56;5050362;28;20032;-78
2022/07/09 06:57:09;;;;;;;5.80;2.78;;;;;;;15.93;88.78;96524.16;5032733;28;20071;-78
2022/07/09 06:59:35;;;;;;;6.55;3.10;;;;;;;15.96;89.02;96526.28;5022304;28;20121;-78
2022/07/09 07:02:01;;;;;;;7.70;3.10;;;;;;;16.16;86.22;96529.81;5051760;28;20109;-78
2022/07/09 07:04:26;;;;;;;6.13;2.78;;;;;;;16.15;88.48;96536.19;5052426;28;20076;-79
2022/07/09 07:06:52;;;;;;;8.65;2.97;;;;;;;16.27;84.47;96532.09;5050111;28;20492;-79
2022/07/09 07:09:18;;;;;;;4.95;2.70;;;;;;;16.23;82.93;96535.59;5039443;28;20048;-78
2022/07/09 07:11:48;;;;;;;14.90;3.80;;;;;;;16.25;80.87;96530.81;5028635;28;20038;-79
2022/07/09 07:14:15;;;;;;;5.25;2.92;;;;;;;16.19;83.93;96529.25;5035458;28;20127;-78
2022/07/09 07:16:41;;;;;;;8.18;2.70;;;;;;;16.39;84.10;96533.56;5045235;28;20037;-76
2022/07/09 07:19:07;;;;;;;9.50;2.78;;;;;;;16.63;82.21;96533.59;5050326;28;20056;-76
2022/07/09 07:21:32;;;;;;;7.03;2.70;;;;;;;16.59;80.27;96532.56;5033341;28;20044;-78
2022/07/09 07:23:58;;;;;;;8.70;2.92;;;;;;;16.49;79.51;96527.38;5023396;28;20413;-74
2022/07/09 07:26:23;;;;;;;5.63;2.90;;;;;;;16.68;80.14;96525.56;5046666;28;20033;-76
2022/07/09 07:28:49;;;;;;;8.88;3.00;;;;;;;16.56;78.56;96522.50;5049063;28;20049;-77
2022/07/09 07:31:15;;;;;;;6.57;2.63;;;;;;;16.65;80.19;96526.16;5032403;28;20074;-79
2022/07/09 07:33:41;;;;;;;4.97;2.63;;;;;;;16.70;78.81;96528.72;5031250;28;20645;-79
2022/07/09 07:36:06;;;;;;;6.80;2.55;;;;;;;16.74;78.32;96524.44;5049282;28;20029;-79
2022/07/09 07:38:33;;;;;;;6.28;2.78;;;;;;;16.82;79.43;96514.25;5026755;28;20049;-79
2022/07/09 07:40:59;;;;;;;5.07;2.70;;;;;;;16.69;78.14;96516.50;5047860;28;20052;-79
2022/07/09 07:43:25;;;;;;;6.97;2.63;;;;;;;16.76;78.73;96514.31;5048480;28;20060;-80
2022/07/09 07:45:50;;;;;;;6.78;2.55;;;;;;;16.66;75.41;96510.97;5030325;28;20059;-80
2022/07/09 07:48:16;;;;;;;5.70;2.60;;;;;;;16.97;78.05;96511.44;5033163;28;20046;-79
2022/07/09 07:50:41;;;;;;;5.25;2.60;;;;;;;16.85;77.09;96508.34;5045380;28;20047;-79
2022/07/09 07:53:07;;;;;;;8.93;2.40;;;;;;;16.96;78.23;96504.53;5051553;28;20431;-77
2022/07/09 07:55:33;;;;;;;9.90;3.00;;;;;;;16.99;76.69;96511.94;5032103;28;20045;-78
2022/07/09 07:57:58;;;;;;;5.57;2.67;;;;;;;17.01;76.26;96507.13;5039803;28;20033;-79
2022/07/09 08:00:24;;;;;;;5.28;2.60;;;;;;;17.15;76.28;96501.88;5032873;28;20037;-80
2022/07/09 08:02:50;;;;;;;7.43;2.80;;;;;;;17.31;76.27;96505.13;5032660;28;20080;-81
2022/07/09 08:05:15;;;;;;;3.67;2.38;;;;;;;17.50;75.69;96497.16;5030320;28;20072;-79
2022/07/09 08:07:41;;;;;;;7.65;2.60;;;;;;;17.73;74.58;96506.09;5046351;28;20056;-76
2022/07/09 08:10:07;;;;;;;4.65;2.38;;;;;;;17.57;72.83;96507.41;5044523;28;20422;-77
2022/07/09 08:12:32;;;;;;;6.55;2.60;;;;;;;17.48;74.66;96510.75;5046599;28;20049;-79
2022/07/09 08:14:57;;;;;;;7.45;2.63;;;;;;;17.52;74.18;96510.16;5058039;28;20697;-78
2022/07/09 08:17:23;;;;;;;8.20;2.90;;;;;;;17.69;74.08;96515.75;5055121;28;20043;-79
2022/07/09 08:19:48;;;;;;;8.15;2.50;;;;;;;17.59;74.47;96505.25;5053090;28;20033;-78
2022/07/09 08:22:14;;;;;;;3.67;2.30;;;;;;;17.61;71.62;96503.91;5059490;28;20060;-79
2022/07/09 08:24:40;;;;;;;5.18;2.30;;;;;;;17.64;73.76;96502.50;5056199;28;20117;-82
2022/07/09 08:27:05;;;;;;;6.05;2.50;;;;;;;17.79;70.99;96499.59;5035550;28;20041;-81
2022/07/09 08:29:31;;;;;;;6.78;2.30;;;;;;;17.92;73.50;96498.09;5035722;28;20832;-80
2022/07/09 08:31:56;;;;;;;4.68;2.40;;;;;;;17.91;72.01;96495.72;5035594;28;20045;-80
2022/07/09 08:34:22;;;;;;;6.03;2.35;;;;;;;18.07;69.27;96489.03;5053125;28;20044;-78
2022/07/09 08:36:47;;;;;;;7.43;2.42;;;;;;;18.20;68.71;96489.38;5052855;28;20461;-76
2022/07/09 08:39:13;;;;;;;5.20;2.33;;;;;;;18.34;68.24;96498.16;5054372;28;20037;-78
2022/07/09 08:41:38;;;;;;;4.32;2.05;;;;;;;18.15;64.56;96491.03;5050105;28;20040;-80
2022/07/09 08:44:04;;;;;;;5.90;2.00;;;;;;;18.20;61.91;96487.47;5054164;28;20064;-79
2022/07/09 08:46:34;;;;;;;3.83;1.92;;;;;;;17.98;66.12;96480.16;5035852;28;20037;-78
2022/07/09 08:49:00;;;;;;;6.93;2.40;;;;;;;18.15;66.16;96480.38;5055443;28;20049;-79
2022/07/09 08:51:26;;;;;;;4.28;2.10;;;;;;;18.17;71.05;96483.56;5049632;28;20040;-80
2022/07/09 08:53:55;;;;;;;5.03;2.55;;;;;;;18.32;64.20;96473.69;5036629;28;20426;-78
2022/07/09 08:56:20;;;;;;;8.02;2.25;;;;;;;18.24;66.09;96469.81;5054657;28;20037;-78
2022/07/09 08:58:45;;;;;;;7.95;2.50;;;;;;;18.49;66.17;96468.56;5052429;28;20045;-79
2022/07/09 09:01:17;;;;;;;6.85;2.33;;;;;;;18.58;63.94;96470.53;5054374;28;20116;-79
2022/07/09 09:03:42;;;;;;;5.80;2.15;;;;;;;18.70;63.84;96470.81;5055450;28;20487;-77
2022/07/09 09:06:10;;;;;;;3.58;1.95;;;;;;;18.77;66.15;96473.88;5055039;28;20043;-78
2022/07/09 09:08:43;;;;;;;10.98;2.30;;;;;;;18.73;62.57;96461.44;5036258;28;20044;-79
2022/07/09 09:11:15;;;;;;;4.15;1.90;;;;;;;18.85;63.75;96465.16;5046480;28;20037;-79
2022/07/09 09:13:45;;;;;;;4.50;2.15;;;;;;;18.68;61.47;96459.66;5044230;28;20071;-78
2022/07/09 09:16:13;;;;;;;6.97;1.90;;;;;;;18.70;59.20;96457.47;5054945;28;20120;-79
2022/07/09 09:18:56;;;;;;;4.90;1.95;;;;;;;18.79;62.00;96453.03;5055233;28;20060;-78
2022/07/09 09:21:24;;;;;;;5.57;2.20;;;;;;;19.04;57.06;96450.94;5056744;28;20048;-76
2022/07/09 09:23:55;;;;;;;6.35;2.17;;;;;;;18.94;60.91;96445.84;5038642;28;20767;-77
2022/07/09 09:26:27;;;;;;;5.82;2.20;;;;;;;18.90;60.44;96447.53;5035028;28;20108;-78
2022/07/09 09:29:01;;;;;;;5.82;2.20;;;;;;;18.56;59.12;96440.72;5050619;28;20041;-79
2022/07/09 09:31:35;;;;;;;7.63;2.30;;;;;;;19.02;61.28;96447.78;5040301;28;20052;-78
2022/07/09 09:34:06;;;;;;;;;;;;;;;19.33;59.65;96437.19;5030206;28;20430;-77
2022/07/09 09:36:38;;;;;;;5.57;2.10;;;;;;;19.41;57.60;96437.56;5033852;28;20814;-77
2022/07/09 09:39:23;;;;;;;4.00;1.90;;;;;;;19.38;55.34;96441.66;5030215;28;20060;-78
2022/07/09 09:42:03;;;;;;;4.85;1.98;;;;;;;19.44;55.41;96435.09;5043368;28;20074;-80
2022/07/09 09:44:39;;;;;;;5.78;2.20;;;;;;;19.41;57.43;96438.38;5046118;28;20050;-79
2022/07/09 09:47:07;;;;;;;5.13;1.92;;;;;;;19.46;58.04;96430.22;5027156;28;20056;-79
2022/07/09 09:49:34;;;;;;;5.70;2.20;;;;;;;19.76;56.08;96435.91;5037577;28;20049;-80
2022/07/09 09:52:05;;;;;;;3.03;2.20;;;;;;;19.94;57.30;96428.00;5036246;28;20041;-78
2022/07/09 09:54:32;;;;;;;3.65;1.85;;;;;;;19.81;54.84;96425.13;5033291;28;20607;-81
2022/07/09 09:57:06;;;;;;;3.75;2.03;;;;;;;20.10;54.84;96431.88;5032527;28;20041;-77
2022/07/09 09:59:34;;;;;;;3.70;1.83;;;;;;;20.03;52.77;96420.84;5041539;28;20045;-78
2022/07/09 10:02:01;;;;;;;6.35;2.00;;;;;;;20.28;54.20;96426.59;5020722;28;20052;-76
2022/07/09 10:04:28;;;;;;;3.25;1.88;;;;;;;20.27;52.90;96414.31;5034117;28;20033;-79
2022/07/09 10:06:54;;;;;;;6.13;1.98;;;;;;;20.28;52.12;96411.31;5049648;28;20402;-77
2022/07/09 10:09:20;;;;;;;3.20;1.83;;;;;;;20.58;52.48;96412.34;5048584;28;20045;-78
2022/07/09 10:11:48;;;;;;;6.13;2.00;;;;;;;21.15;53.65;96410.72;5049148;28;20045;-78
2022/07/09 10:14:24;;;;;;;4.70;1.98;;;;;;;20.93;52.25;96415.13;5051183;28;20041;-78
2022/07/09 10:16:50;;;;;;;6.35;1.90;;;;;;;21.18;52.50;96407.41;5046673;28;20047;-76
2022/07/09 10:19:23;;;;;;;3.55;1.60;;;;;;;21.37;50.09;96404.38;5042462;28;20495;-77
2022/07/09 10:21:52;;;;;;;3.90;1.88;;;;;;;21.52;51.86;96403.16;5033237;28;20046;-76
2022/07/09 10:24:27;;;;;;;5.22;1.77;;;;;;;20.58;47.73;96409.66;5052120;28;20045;-76
2022/07/09 10:27:09;;;;;;;4.10;1.88;;;;;;;20.73;49.41;96410.34;5045845;28;20061;-78
2022/07/09 10:29:36;;;;;;;4.00;1.90;;;;;;;20.80;48.53;96408.00;5045436;28;20037;-78
2022/07/09 10:32:03;;;;;;;5.20;2.08;;;;;;;21.08;49.70;96394.34;5039460;28;20128;-77
2022/07/09 10:34:51;;;;;;;8.27;2.05;;;;;;;21.60;50.94;96402.31;5039060;28;20045;-82
2022/07/09 10:37:18;;;;;;;4.60;1.70;;;;;;;21.29;49.19;96395.28;5047213;28;20059;-76
2022/07/09 10:39:54;;;;;;;4.00;1.90;;;;;;;21.31;50.07;96402.22;5047322;28;20590;-76
2022/07/09 10:42:23;;;;;;;3.65;1.80;;;;;;;21.07;51.21;96408.81;5040053;28;20098;-76
2022/07/09 10:44:49;;;;;;;5.07;2.00;;;;;;;21.09;51.05;96406.63;5048810;28;20489;-76
2022/07/09 10:47:15;;;;;;;4.57;1.90;;;;;;;20.77;50.10;96405.97;5025943;28;20108;-75
2022/07/09 10:49:41;;;;;;;7.60;2.35;;;;;;;21.19;49.57;96400.16;5028482;28;20122;-76
2022/07/09 10:52:08;;;;;;;5.85;2.15;;;;;;;21.72;48.55;96396.31;5048811;28;20033;-77
2022/07/09 10:54:34;;;;;;;7.80;2.05;;;;;;;22.50;48.73;96397.13;5032585;28;20068;-77
2022/07/09 10:57:00;;;;;;;5.60;2.15;;;;;;;23.22;48.00;96397.09;5048398;28;20782;-76
2022/07/09 10:59:26;;;;;;;5.10;2.05;;;;;;;23.35;45.06;96392.56;5049200;28;20054;-77
2022/07/09 11:01:52;;;;;;;3.33;1.83;;;;;;;23.34;45.18;96383.69;5034910;28;20045;-77
2022/07/09 11:04:30;;;;;;;3.05;1.98;;;;;;;23.20;44.63;96385.88;5029294;28;20040;-77
2022/07/09 11:06:57;;;;;;;6.20;2.20;;;;;;;22.76;44.61;96388.91;5042661;28;20157;-77
2022/07/09 11:09:28;;;;;;;8.80;2.10;;;;;;;23.57;43.84;96383.31;5031252;28;20119;-77
2022/07/09 11:11:53;;;;;;;3.13;1.98;;;;;;;24.02;45.24;96393.28;5031565;28;20056;-76
2022/07/09 11:14:19;;;;;;;3.92;1.83;;;;;;;23.84;42.99;96391.91;5031471;28;20033;-76
2022/07/09 11:16:55;;;;;;;5.43;2.00;;;;;;;24.20;42.73;96382.31;5047787;28;20049;-77
2022/07/09 11:19:21;;;;;;;3.20;1.90;;;;;;;23.89;41.05;96383.63;5047356;28;20063;-77
2022/07/09 11:21:47;;;;;;;4.00;2.10;;;;;;;23.35;44.06;96387.19;5048452;28;20535;-77
2022/07/09 11:24:21;;;;;;;4.43;1.75;;;;;;;23.10;42.24;96375.53;5029152;28;20120;-76
2022/07/09 11:26:47;;;;;;;3.60;1.60;;;;;;;24.51;38.97;96375.56;5027288;28;20055;-77